Time;durP1;ratioP1;P1;durP2;ratioP2;P2;SDS_P1;SDS_P2;PMS_P1;PMS_P2;Temp;Humidity;BMP_temperature;BMP_pressure;BME280_temperature;BME280_humidity;BME280_pressure;Samples;Min_cycle;Max_cycle;Signal;HPM_P1;HPM_P2
2021/12/15 00:00:20;;;;;;;25.73;16.67;;;;;;;3.50;90.69;100914.59;4936429;29;20260;-87
2021/12/15 00:02:50;;;;;;;29.38;17.05;;;;;;;3.51;90.68;100912.00;4931151;29;20738;-86
2021/12/15 00:05:21;;;;;;;38.00;17.95;;;;;;;3.52;90.57;100912.84;4933679;29;20428;-87
2021/12/15 00:07:50;;;;;;;33.88;18.48;;;;;;;3.53;90.93;100909.38;4930310;29;20347;-87
2021/12/15 00:10:15;;;;;;;38.17;19.85;;;;;;;3.51;90.77;100916.31;4927348;29;20261;-87
2021/12/15 00:12:41;;;;;;;32.43;20.17;;;;;;;3.47;91.04;100912.06;4928077;29;20244;-86
2021/12/15 00:15:07;;;;;;;36.37;18.80;;;;;;;3.45;90.83;100906.03;4930638;29;20205;-86
2021/12/15 00:17:32;;;;;;;32.42;19.55;;;;;;;3.45;90.73;100900.81;4932968;29;20542;-86
2021/12/15 00:19:58;;;;;;;41.20;20.33;;;;;;;3.45;91.06;100901.69;4934793;29;20219;-87
2021/12/15 00:22:26;;;;;;;32.43;18.30;;;;;;;3.46;91.23;100908.59;4931794;29;20212;-86
2021/12/15 00:24:52;;;;;;;31.42;18.98;;;;;;;3.50;91.32;100912.00;4930083;29;20221;-87
2021/12/15 00:27:18;;;;;;;34.20;18.93;;;;;;;3.54;91.35;100914.56;4930517;29;20575;-88
2021/12/15 00:29:43;;;;;;;32.57;18.90;;;;;;;3.57;91.17;100913.66;4931377;29;20201;-87
2021/12/15 00:32:10;;;;;;;30.45;18.08;;;;;;;3.58;91.14;100911.91;4935738;29;20345;-87
2021/12/15 00:34:38;;;;;;;28.90;17.53;;;;;;;3.59;90.89;100911.88;4931932;29;20705;-87
2021/12/15 00:37:04;;;;;;;28.00;16.83;;;;;;;3.63;91.15;100913.56;4935746;29;20216;-87
2021/12/15 00:39:31;;;;;;;27.13;17.17;;;;;;;3.64;91.19;100915.25;4924227;29;20735;-87
2021/12/15 00:41:57;;;;;;;26.65;15.15;;;;;;;3.67;91.11;100911.78;4934064;29;20292;-87
2021/12/15 00:44:24;;;;;;;31.25;16.65;;;;;;;3.70;91.00;100912.59;4930789;29;20229;-86
2021/12/15 00:46:52;;;;;;;29.83;18.60;;;;;;;3.71;91.13;100922.09;4936445;29;20216;-85
2021/12/15 00:49:18;;;;;;;26.40;16.83;;;;;;;3.70;90.83;100914.31;4929571;29;20220;-86
2021/12/15 00:51:44;;;;;;;22.83;15.60;;;;;;;3.68;90.93;100919.56;4931918;29;20209;-86
2021/12/15 00:54:11;;;;;;;28.45;17.33;;;;;;;3.69;91.11;100923.00;4923054;29;20209;-87
2021/12/15 00:56:37;;;;;;;26.03;14.83;;;;;;;3.70;90.67;100920.41;4930240;29;20219;-87
2021/12/15 00:59:04;;;;;;;27.13;14.80;;;;;;;3.70;91.00;100923.00;4934956;29;20220;-87
2021/12/15 01:01:30;;;;;;;40.27;21.23;;;;;;;3.77;90.66;100916.81;4928817;29;20496;-87
2021/12/15 01:03:56;;;;;;;29.03;18.37;;;;;;;3.74;90.74;100916.00;4929990;29;20475;-86
2021/12/15 01:06:22;;;;;;;36.07;18.50;;;;;;;3.65;90.59;100917.00;4922342;29;20828;-87
2021/12/15 01:08:57;;;;;;;32.83;18.67;;;;;;;3.63;90.78;100923.09;4930708;29;20477;-87
2021/12/15 01:19:54;;;;;;;28.10;18.00;;;;;;;3.63;91.02;100920.50;4938374;29;20220;-87
2021/12/15 01:22:33;;;;;;;21.92;16.55;;;;;;;3.64;90.78;100927.41;4928941;29;20253;-86
2021/12/15 01:25:08;;;;;;;25.63;16.55;;;;;;;3.64;90.71;100935.19;4923635;29;20221;-86
2021/12/15 01:27:37;;;;;;;26.75;16.42;;;;;;;3.65;90.99;100940.38;4941315;29;20520;-87
2021/12/15 01:30:08;;;;;;;23.88;17.45;;;;;;;3.64;90.90;100936.06;4937835;29;20237;-87
2021/12/15 01:32:34;;;;;;;28.40;16.70;;;;;;;3.63;91.08;100936.94;4954709;29;20272;-88
2021/12/15 01:34:59;;;;;;;25.50;15.30;;;;;;;3.62;90.80;100934.34;4945354;29;20227;-87
2021/12/15 01:37:25;;;;;;;26.70;15.87;;;;;;;3.60;91.00;100938.75;4953978;29;20300;-87
2021/12/15 01:39:54;;;;;;;25.77;16.47;;;;;;;3.57;90.77;100939.63;4943771;29;20523;-87
2021/12/15 01:42:24;;;;;;;37.35;18.08;;;;;;;3.54;90.69;100935.34;4959570;28;20294;-87
2021/12/15 01:47:34;;;;;;;27.95;17.35;;;;;;;3.47;90.95;100938.03;4937677;29;20372;-88
2021/12/15 01:50:00;;;;;;;20.43;14.20;;;;;;;3.47;91.02;100935.44;4931447;29;20209;-87
2021/12/15 01:52:33;;;;;;;29.05;16.35;;;;;;;3.49;90.93;100938.88;4914150;29;20471;-86
2021/12/15 01:55:09;;;;;;;27.70;16.30;;;;;;;3.49;91.01;100937.13;4929003;29;20205;-86
2021/12/15 01:57:36;;;;;;;27.10;17.73;;;;;;;3.54;91.23;100948.31;4929294;29;20213;-86
2021/12/15 02:00:16;;;;;;;24.77;15.73;;;;;;;3.57;91.17;100939.63;4921326;29;20299;-86
2021/12/15 02:02:44;;;;;;;22.33;14.80;;;;;;;3.62;90.92;100936.94;4931464;29;20205;-86
2021/12/15 02:05:10;;;;;;;22.77;16.40;;;;;;;3.64;91.31;100936.06;4930173;29;20272;-87
2021/12/15 02:07:37;;;;;;;24.35;14.60;;;;;;;3.69;91.18;100944.66;4935450;28;20794;-86
2021/12/15 02:10:05;;;;;;;26.77;15.57;;;;;;;3.72;90.90;100943.75;4929801;29;20245;-86
2021/12/15 02:12:36;;;;;;;25.13;15.10;;;;;;;3.75;90.90;100952.38;4930993;29;20233;-87
2021/12/15 02:15:30;;;;;;;24.88;15.68;;;;;;;3.77;91.17;100950.59;4933430;29;20280;-86
2021/12/15 02:17:59;;;;;;;19.83;13.23;;;;;;;3.80;90.90;100948.84;4936588;29;20758;-86
2021/12/15 02:20:39;;;;;;;21.38;15.15;;;;;;;3.82;90.76;100947.09;4919611;29;20209;-86
2021/12/15 02:23:09;;;;;;;22.98;13.65;;;;;;;3.84;91.00;100946.19;4932975;29;20567;-87
2021/12/15 02:25:34;;;;;;;27.80;16.63;;;;;;;3.87;90.80;100946.13;4934365;28;20293;-87
2021/12/15 02:28:02;;;;;;;29.30;15.10;;;;;;;3.87;90.58;100947.88;4919413;29;20734;-86
2021/12/15 02:38:09;;;;;;;29.55;16.45;;;;;;;3.89;90.60;100940.91;4930951;29;20644;-87
2021/12/15 02:40:35;;;;;;;29.13;14.90;;;;;;;3.87;90.82;100948.75;4927815;29;20213;-86
2021/12/15 02:43:02;;;;;;;28.98;15.32;;;;;;;3.88;90.76;100942.66;4929046;29;20292;-86
2021/12/15 02:45:31;;;;;;;25.63;14.98;;;;;;;3.89;90.89;100951.28;4931224;29;20218;-87
2021/12/15 02:47:57;;;;;;;29.10;15.63;;;;;;;3.90;90.76;100948.69;4928926;29;20213;-86
2021/12/15 02:50:27;;;;;;;26.10;14.35;;;;;;;3.90;90.63;100948.69;4929138;29;20216;-88
2021/12/15 02:52:54;;;;;;;23.95;14.35;;;;;;;3.89;90.83;100949.56;4929740;29;20215;-87
2021/12/15 02:55:20;;;;;;;23.10;14.80;;;;;;;3.91;90.71;100953.00;4930081;29;20241;-87
2021/12/15 02:57:47;;;;;;;21.07;14.90;;;;;;;3.93;90.78;100953.84;4932984;29;20921;-86
2021/12/15 03:00:47;;;;;;;23.80;14.23;;;;;;;3.94;90.62;100963.38;4928496;29;20488;-87
2021/12/15 03:05:55;;;;;;;24.42;15.00;;;;;;;3.90;90.80;100943.50;4929959;29;20336;-87
2021/12/15 03:08:28;;;;;;;28.88;14.63;;;;;;;3.88;90.53;100949.59;4928594;28;20646;-87
2021/12/15 03:16:24;;;;;;;24.92;14.88;;;;;;;3.94;90.48;100954.69;4932200;29;20374;-86
2021/12/15 03:18:50;;;;;;;22.00;13.50;;;;;;;3.93;90.70;100951.25;4933947;29;20202;-86
2021/12/15 03:21:24;;;;;;;25.37;13.50;;;;;;;3.93;90.64;100950.38;4933944;29;20461;-86
2021/12/15 03:23:55;;;;;;;24.20;15.15;;;;;;;3.94;90.51;100949.50;4934647;29;20464;-86
2021/12/15 03:26:31;;;;;;;23.58;13.65;;;;;;;3.94;90.55;100944.28;4938174;29;20698;-87
2021/12/15 03:35:00;;;;;;;27.17;14.00;;;;;;;3.94;90.56;100952.97;4936893;29;20213;-88
2021/12/15 03:37:28;;;;;;;22.40;13.20;;;;;;;3.97;90.53;100952.06;4935671;29;20248;-87
2021/12/15 03:40:00;;;;;;;23.83;13.10;;;;;;;3.98;90.63;100959.84;4930329;29;20473;-86
2021/12/15 03:42:34;;;;;;;26.67;15.15;;;;;;;4.00;90.49;100954.63;4932018;29;20209;-87
2021/12/15 03:45:05;;;;;;;25.00;13.55;;;;;;;3.99;90.36;100953.75;4936037;29;20275;-87
2021/12/15 03:47:34;;;;;;;30.98;14.27;;;;;;;4.00;90.21;100959.81;4934208;29;20599;-87
2021/12/15 03:50:04;;;;;;;27.52;14.40;;;;;;;3.98;90.22;100953.78;4924101;29;20969;-88
2021/12/15 03:52:30;;;;;;;21.30;12.82;;;;;;;3.97;90.21;100947.72;4938959;29;20248;-88
2021/12/15 03:54:55;;;;;;;30.90;15.60;;;;;;;3.98;90.23;100959.84;4934978;29;20216;-87
2021/12/15 03:57:21;;;;;;;20.87;13.10;;;;;;;3.98;90.41;100951.19;4933071;29;20208;-87
2021/12/15 03:59:47;;;;;;;23.10;14.20;;;;;;;3.98;90.64;100958.97;4932768;29;20607;-87
2021/12/15 04:02:17;;;;;;;23.98;13.48;;;;;;;3.98;90.22;100958.97;4929776;29;20457;-87
2021/12/15 04:04:43;;;;;;;30.67;17.17;;;;;;;3.98;90.61;100959.84;4938891;29;20226;-87
2021/12/15 04:07:10;;;;;;;26.75;12.38;;;;;;;4.01;90.47;100960.69;4939950;28;20703;-86
2021/12/15 04:09:36;;;;;;;24.38;13.45;;;;;;;4.00;90.34;100957.22;4940249;29;20280;-86
2021/12/15 04:12:03;;;;;;;24.60;13.32;;;;;;;4.00;90.11;100962.41;4929619;29;20252;-86
2021/12/15 04:14:34;;;;;;;22.85;12.45;;;;;;;4.00;90.40;100957.22;4932601;29;20229;-87
2021/12/15 04:17:06;;;;;;;24.55;12.90;;;;;;;3.99;90.45;100958.09;4931611;29;20215;-88
2021/12/15 04:19:35;;;;;;;22.02;12.43;;;;;;;3.99;90.51;100971.09;4928523;29;20225;-88
2021/12/15 04:22:01;;;;;;;28.08;15.02;;;;;;;3.99;90.56;100968.47;4928376;29;20206;-87
2021/12/15 04:24:27;;;;;;;25.77;15.13;;;;;;;3.98;90.37;100958.97;4928012;29;20229;-88
2021/12/15 04:26:55;;;;;;;25.23;15.15;;;;;;;3.97;90.06;100952.06;4927690;29;20683;-88
2021/12/15 04:29:22;;;;;;;31.70;16.58;;;;;;;3.96;89.99;100963.34;4932341;29;20525;-86
2021/12/15 04:31:58;;;;;;;23.92;14.07;;;;;;;3.93;90.16;100961.63;4932619;29;20211;-87
2021/12/15 04:34:24;;;;;;;26.98;14.80;;;;;;;3.92;90.46;100959.94;4929749;28;20268;-87
2021/12/15 04:36:52;;;;;;;29.27;15.30;;;;;;;3.92;90.38;100953.88;4933701;29;20294;-87
2021/12/15 04:39:21;;;;;;;26.73;14.63;;;;;;;3.91;90.56;100960.78;4930050;28;20268;-87
2021/12/15 04:41:49;;;;;;;22.42;13.60;;;;;;;3.90;90.33;100963.44;4920427;29;20205;-87
2021/12/15 04:44:17;;;;;;;29.00;15.25;;;;;;;3.89;90.46;100954.78;4936791;29;20232;-87
2021/12/15 04:46:58;;;;;;;26.55;15.13;;;;;;;3.87;90.53;100960.88;4932539;29;20352;-87
2021/12/15 04:49:25;;;;;;;25.42;14.77;;;;;;;3.89;90.45;100961.69;4931790;29;20710;-87
2021/12/15 04:51:51;;;;;;;29.63;16.63;;;;;;;3.89;90.43;100972.97;4931877;29;20267;-88
2021/12/15 04:54:18;;;;;;;34.13;19.17;;;;;;;3.88;90.42;100970.38;4930849;29;20206;-88
2021/12/15 04:56:44;;;;;;;33.22;20.10;;;;;;;3.89;90.44;100966.88;4924499;29;21173;-87
2021/12/15 04:59:10;;;;;;;32.60;18.60;;;;;;;3.89;90.42;100972.09;4929233;29;20209;-85
2021/12/15 05:01:36;;;;;;;27.35;17.13;;;;;;;3.88;90.56;100962.59;4932108;29;20214;-87
2021/12/15 05:04:02;;;;;;;36.37;18.77;;;;;;;3.88;90.48;100965.19;4933006;29;20224;-87
2021/12/15 05:06:27;;;;;;;27.03;17.30;;;;;;;3.89;90.37;100969.50;4928990;28;20237;-87
2021/12/15 05:08:54;;;;;;;34.63;19.33;;;;;;;3.90;90.21;100968.63;4933511;29;20655;-87
2021/12/15 05:11:19;;;;;;;37.72;19.90;;;;;;;3.90;90.17;100971.22;4933707;29;20245;-87
2021/12/15 05:13:45;;;;;;;33.97;16.57;;;;;;;3.87;90.49;100968.69;4929738;29;20617;-87
2021/12/15 05:16:11;;;;;;;24.80;16.43;;;;;;;3.86;90.59;100973.03;4921598;29;20292;-86
2021/12/15 05:18:37;;;;;;;30.47;19.17;;;;;;;3.88;90.62;100978.19;4933099;29;20225;-87
2021/12/15 05:21:05;;;;;;;29.93;17.57;;;;;;;3.87;90.35;100974.72;4931212;29;20458;-87
2021/12/15 05:23:32;;;;;;;26.67;14.80;;;;;;;3.87;90.18;100976.47;4937666;29;20212;-87
2021/12/15 05:25:59;;;;;;;26.70;17.90;;;;;;;3.88;90.69;100979.03;4932090;29;20229;-87
2021/12/15 05:28:26;;;;;;;32.55;16.77;;;;;;;3.87;90.46;100974.72;4930575;29;20209;-87
2021/12/15 05:30:52;;;;;;;26.52;16.08;;;;;;;3.88;90.46;100978.19;4930771;29;20723;-87
2021/12/15 05:33:17;;;;;;;25.70;15.70;;;;;;;3.88;90.45;100973.84;4931791;29;20209;-87
2021/12/15 05:35:43;;;;;;;27.00;16.07;;;;;;;3.89;90.35;100977.28;4933973;29;20209;-88
2021/12/15 05:38:08;;;;;;;22.17;15.70;;;;;;;3.88;90.25;100968.63;4941679;29;20190;-88
2021/12/15 05:40:36;;;;;;;27.43;16.90;;;;;;;3.89;90.12;100969.50;4938868;29;20303;-88
2021/12/15 05:43:04;;;;;;;19.48;13.45;;;;;;;3.89;90.44;100979.88;4932617;29;20205;-87
2021/12/15 05:45:33;;;;;;;24.38;13.88;;;;;;;3.89;90.22;100982.47;4931468;29;20271;-88
2021/12/15 05:47:59;;;;;;;27.65;16.67;;;;;;;3.87;90.16;100982.53;4932719;29;20205;-87
2021/12/15 05:50:27;;;;;;;27.48;17.05;;;;;;;3.87;90.35;100986.88;4931290;29;20208;-87
2021/12/15 05:52:53;;;;;;;24.50;14.73;;;;;;;3.88;90.40;100981.63;4932897;29;20375;-84
2021/12/15 05:55:19;;;;;;;24.10;14.73;;;;;;;3.88;90.16;100984.22;4933380;29;20213;-87
2021/12/15 05:57:46;;;;;;;26.20;13.80;;;;;;;3.87;90.31;100986.88;4936166;29;20220;-87
2021/12/15 06:00:33;;;;;;;29.55;13.75;;;;;;;3.89;90.40;100985.97;4925563;29;20204;-86
2021/12/15 06:02:59;;;;;;;19.90;13.82;;;;;;;3.89;90.05;100980.78;4927483;29;20214;-86
2021/12/15 06:05:25;;;;;;;23.55;14.27;;;;;;;3.90;90.30;100992.03;4930094;29;20316;-87
2021/12/15 06:07:51;;;;;;;27.53;15.07;;;;;;;3.89;90.19;100985.97;4935089;29;20706;-86
2021/12/15 06:10:21;;;;;;;20.13;13.67;;;;;;;3.90;90.08;100992.03;4933196;29;20248;-85
2021/12/15 06:12:49;;;;;;;22.75;14.77;;;;;;;3.89;90.26;100998.09;4940861;29;21169;-85
2021/12/15 06:15:21;;;;;;;31.38;17.65;;;;;;;3.87;90.17;100997.28;4936278;29;20205;-85
2021/12/15 06:17:57;;;;;;;27.85;15.18;;;;;;;3.86;90.10;101003.31;4934614;29;20224;-86
2021/12/15 06:20:24;;;;;;;33.65;15.85;;;;;;;3.86;90.43;101000.72;4939660;29;20212;-85
2021/12/15 06:22:53;;;;;;;22.17;13.18;;;;;;;3.87;90.12;101005.06;4935901;29;20220;-86
2021/12/15 06:25:18;;;;;;;33.17;14.77;;;;;;;3.87;90.29;101005.06;4934070;29;20226;-86
2021/12/15 06:27:44;;;;;;;21.90;15.27;;;;;;;3.85;90.16;100999.03;4941725;29;20224;-88
2021/12/15 06:30:10;;;;;;;25.53;14.07;;;;;;;3.85;89.96;101001.63;4934696;29;20216;-86
2021/12/15 06:32:35;;;;;;;18.63;12.40;;;;;;;3.83;90.25;101011.16;4933727;29;20667;-86
2021/12/15 06:35:02;;;;;;;22.10;13.50;;;;;;;3.82;90.27;101002.53;4931405;29;20216;-86
2021/12/15 06:37:28;;;;;;;18.38;12.05;;;;;;;3.82;90.24;101006.88;4930991;29;20209;-86
2021/12/15 06:39:53;;;;;;;20.83;12.00;;;;;;;3.80;90.65;101011.22;4932404;29;20485;-86
2021/12/15 06:42:19;;;;;;;23.90;12.50;;;;;;;3.81;90.23;101012.91;4931357;29;20209;-86
2021/12/15 06:44:46;;;;;;;26.73;13.00;;;;;;;3.82;90.21;101018.13;4922540;29;20620;-86
2021/12/15 07:00:18;;;;;;;26.30;15.20;;;;;;;3.70;90.48;101016.53;4933730;29;20210;-86
2021/12/15 07:02:44;;;;;;;24.65;14.20;;;;;;;3.70;90.40;101019.16;4930719;29;20632;-86
2021/12/15 07:05:11;;;;;;;21.87;14.37;;;;;;;3.72;90.24;101019.97;4928995;29;20243;-86
2021/12/15 07:07:39;;;;;;;23.27;13.95;;;;;;;3.74;90.37;101017.34;4929830;29;20738;-86
2021/12/15 07:10:06;;;;;;;24.98;15.65;;;;;;;3.73;90.25;101020.84;4924959;29;20723;-85
2021/12/15 07:12:32;;;;;;;22.15;19.83;;;;;;;3.72;90.14;101025.16;4926955;29;20213;-86
2021/12/15 07:14:57;;;;;;;25.67;14.67;;;;;;;3.74;90.35;101032.94;4926558;29;20487;-86
2021/12/15 07:17:25;;;;;;;25.63;16.90;;;;;;;3.74;90.19;101026.00;4931330;29;20301;-86
2021/12/15 07:20:07;;;;;;;33.75;19.25;;;;;;;3.75;90.11;101024.25;4933312;29;20225;-87
2021/12/15 07:25:08;;;;;;;33.38;20.67;;;;;;;3.75;90.28;101030.34;4927274;29;20822;-86
2021/12/15 07:27:33;;;;;;;27.80;17.75;;;;;;;3.77;90.09;101025.97;4930280;29;20544;-86
2021/12/15 07:30:00;;;;;;;25.07;15.90;;;;;;;3.79;90.16;101031.16;4930574;29;20576;-86
2021/12/15 07:32:26;;;;;;;29.27;17.30;;;;;;;3.81;90.33;101028.50;4933505;29;20535;-86
2021/12/15 07:34:51;;;;;;;22.40;16.90;;;;;;;3.82;89.84;101035.47;4928732;29;20352;-87
2021/12/15 07:37:17;;;;;;;30.60;17.70;;;;;;;3.81;90.08;101031.13;4928153;28;20221;-86
2021/12/15 07:39:54;;;;;;;21.90;15.70;;;;;;;3.77;90.01;101027.72;4935091;29;20217;-86
2021/12/15 07:42:28;;;;;;;25.52;16.42;;;;;;;3.73;90.03;101031.25;4932986;29;20213;-86
2021/12/15 07:44:54;;;;;;;26.52;15.40;;;;;;;3.70;90.27;101039.94;4925977;29;20224;-86
2021/12/15 07:47:19;;;;;;;26.73;16.20;;;;;;;3.69;90.34;101043.41;4923031;28;20244;-86
2021/12/15 07:49:45;;;;;;;26.40;16.93;;;;;;;3.70;90.45;101039.03;4930217;28;20597;-86
2021/12/15 07:52:10;;;;;;;31.20;20.30;;;;;;;3.69;90.31;101051.19;4928852;29;20272;-86
2021/12/15 07:54:36;;;;;;;29.70;19.63;;;;;;;3.69;90.41;101043.41;4928884;29;20253;-86
2021/12/15 07:57:07;;;;;;;32.10;17.23;;;;;;;3.70;90.36;101047.72;4936664;29;20263;-86
2021/12/15 07:59:34;;;;;;;31.60;20.48;;;;;;;3.71;90.50;101046.84;4925883;29;20456;-85
2021/12/15 08:01:59;;;;;;;37.67;24.05;;;;;;;3.84;90.28;101047.56;4926711;29;20525;-86
2021/12/15 08:04:25;;;;;;;26.93;17.87;;;;;;;3.82;89.81;101053.66;4921348;29;20683;-85
2021/12/15 08:06:51;;;;;;;28.90;18.13;;;;;;;3.77;90.10;101049.34;4928394;29;20283;-86
2021/12/15 08:09:18;;;;;;;24.48;17.08;;;;;;;3.76;90.25;101059.78;4927135;29;20843;-86
2021/12/15 08:11:43;;;;;;;27.90;16.27;;;;;;;3.75;90.27;101056.34;4936347;29;20209;-85
2021/12/15 08:14:09;;;;;;;25.50;15.80;;;;;;;3.77;90.20;101062.34;4933386;29;20742;-85
2021/12/15 08:16:41;;;;;;;30.60;16.20;;;;;;;3.79;90.25;101071.88;4930425;29;20482;-86
2021/12/15 08:19:08;;;;;;;27.77;17.58;;;;;;;3.79;90.24;101061.50;4931104;29;20626;-85
2021/12/15 08:21:36;;;;;;;32.53;19.50;;;;;;;3.80;90.08;101068.41;4927364;29;20264;-86
2021/12/15 08:24:02;;;;;;;25.65;17.77;;;;;;;3.81;90.01;101070.09;4934380;29;20707;-86
2021/12/15 08:26:28;;;;;;;27.83;16.92;;;;;;;3.83;90.15;101063.16;4930285;29;20243;-86
2021/12/15 08:28:55;;;;;;;25.07;15.53;;;;;;;3.86;90.10;101064.00;4939265;29;20205;-86
2021/12/15 08:31:20;;;;;;;23.50;15.80;;;;;;;3.89;90.05;101069.16;4922494;29;20879;-85
2021/12/15 08:33:46;;;;;;;26.80;15.23;;;;;;;3.91;89.73;101067.38;4933132;29;20684;-85
2021/12/15 08:36:15;;;;;;;20.57;16.00;;;;;;;3.93;89.71;101069.97;4935932;29;20460;-86
2021/12/15 08:38:43;;;;;;;20.42;14.07;;;;;;;3.96;89.80;101075.13;4939460;29;20840;-87
2021/12/15 08:41:17;;;;;;;26.05;15.27;;;;;;;3.95;89.57;101079.47;4936982;29;20261;-87
2021/12/15 08:43:43;;;;;;;25.88;16.67;;;;;;;3.94;89.54;101066.47;4934316;29;20283;-86
2021/12/15 08:46:15;;;;;;;20.43;15.57;;;;;;;3.94;89.74;101072.56;4933340;29;20288;-87
2021/12/15 08:48:42;;;;;;;21.70;13.80;;;;;;;3.97;89.65;101075.13;4932251;29;20561;-88
2021/12/15 08:51:10;;;;;;;22.05;13.68;;;;;;;3.97;89.72;101071.66;4929684;29;20544;-87
2021/12/15 08:53:37;;;;;;;20.33;13.85;;;;;;;3.98;89.59;101078.56;4936250;29;20213;-86
2021/12/15 08:56:03;;;;;;;26.17;15.15;;;;;;;4.01;89.61;101077.66;4930830;29;20247;-87
2021/12/15 08:58:29;;;;;;;22.85;15.57;;;;;;;4.02;89.64;101081.97;4933037;29;20216;-87
2021/12/15 09:00:57;;;;;;;28.27;17.73;;;;;;;4.05;89.52;101089.72;4928925;29;20695;-85
2021/12/15 09:03:29;;;;;;;25.63;16.63;;;;;;;4.06;89.41;101083.66;4937561;29;20215;-86
2021/12/15 09:06:39;;;;;;;22.30;13.32;;;;;;;4.05;89.21;101093.22;4938373;29;20237;-86
2021/12/15 09:09:31;;;;;;;23.92;16.30;;;;;;;4.03;89.46;101091.50;4908847;29;20244;-86
2021/12/15 09:11:57;;;;;;;30.10;16.90;;;;;;;4.03;89.47;101097.56;4928410;29;20209;-85
2021/12/15 09:14:22;;;;;;;26.20;16.13;;;;;;;4.00;89.13;101095.00;4932379;29;20327;-86
2021/12/15 09:16:51;;;;;;;17.60;14.10;;;;;;;3.99;89.74;101099.31;4929479;29;20221;-85
2021/12/15 09:19:17;;;;;;;28.15;16.95;;;;;;;4.00;89.34;101102.81;4930605;29;20212;-87
2021/12/15 09:21:43;;;;;;;25.33;16.08;;;;;;;4.01;89.66;101101.06;4934022;29;20215;-85
2021/12/15 09:24:10;;;;;;;18.70;14.23;;;;;;;4.03;89.54;101102.78;4935982;29;20570;-86
2021/12/15 09:26:36;;;;;;;19.00;12.38;;;;;;;4.08;89.39;101095.78;4934946;29;20206;-86
2021/12/15 09:29:03;;;;;;;39.17;23.50;;;;;;;4.13;89.31;101095.69;4927746;29;20216;-85
2021/12/15 09:31:29;;;;;;;31.70;18.95;;;;;;;4.17;89.20;101095.63;4933320;29;20229;-85
2021/12/15 09:33:56;;;;;;;28.53;17.13;;;;;;;4.24;89.35;101095.53;4921421;29;20323;-85
2021/12/15 09:36:25;;;;;;;23.13;15.50;;;;;;;4.29;88.93;101094.59;4919876;29;20209;-86
2021/12/15 09:38:56;;;;;;;24.80;15.68;;;;;;;4.33;89.18;101093.69;4934513;29;20227;-86
2021/12/15 09:41:23;;;;;;;21.10;13.77;;;;;;;4.37;88.90;101091.91;4933211;29;20563;-86
2021/12/15 09:43:52;;;;;;;13.43;10.70;;;;;;;4.38;88.62;101088.44;4924126;29;20755;-85
2021/12/15 09:46:36;;;;;;;10.45;8.82;;;;;;;4.37;88.62;101090.16;4943267;29;20257;-86
2021/12/15 09:57:46;;;;;;;13.68;9.70;;;;;;;4.40;88.35;101081.44;4924017;29;21309;-85
2021/12/15 10:03:04;;;;;;;14.63;9.60;;;;;;;4.43;88.20;101082.28;4930774;29;20680;-86
2021/12/15 10:10:43;;;;;;;16.05;9.15;;;;;;;4.47;88.28;101079.63;4935030;28;20625;-86
2021/12/15 10:11:10;;;;;;;13.50;9.07;;;;;;;4.48;88.33;101076.13;4911533;29;20245;-86
2021/12/15 10:19:25;;;;;;;12.90;8.55;;;;;;;4.50;88.17;101082.19;4926227;29;20519;-86
2021/12/15 10:21:57;;;;;;;13.98;9.48;;;;;;;4.52;88.33;101080.41;4929655;29;20239;-86
2021/12/15 10:24:30;;;;;;;15.45;9.95;;;;;;;4.53;88.08;101079.53;4923493;29;20236;-85
2021/12/15 10:27:02;;;;;;;9.65;7.68;;;;;;;4.52;88.21;101080.41;4933235;29;20221;-85
2021/12/15 10:29:29;;;;;;;16.67;9.90;;;;;;;4.53;88.19;101077.78;4925025;29;20331;-85
2021/12/15 10:32:00;;;;;;;10.97;9.20;;;;;;;4.52;88.17;101081.28;4929327;28;20308;-86
2021/12/15 10:34:26;;;;;;;12.07;9.65;;;;;;;4.51;88.21;101074.38;4930907;29;20210;-86
2021/12/15 10:36:51;;;;;;;17.73;10.00;;;;;;;4.50;88.19;101077.81;4927857;29;20215;-85
2021/12/15 10:39:17;;;;;;;14.40;9.53;;;;;;;4.50;88.24;101077.81;4923731;29;20568;-86
2021/12/15 10:41:44;;;;;;;17.03;12.83;;;;;;;4.51;88.20;101078.69;4930898;29;20220;-86
2021/12/15 10:44:23;;;;;;;19.25;12.75;;;;;;;4.50;88.24;101072.63;4927726;29;20259;-85
2021/12/15 10:47:05;;;;;;;19.60;12.65;;;;;;;4.50;88.37;101077.81;4935162;29;20820;-85
2021/12/15 10:49:33;;;;;;;18.98;13.70;;;;;;;4.51;88.43;101071.75;4931342;29;20263;-86
2021/12/15 10:52:01;;;;;;;21.00;13.57;;;;;;;4.54;88.47;101063.06;4932197;29;20224;-87
2021/12/15 10:54:34;;;;;;;21.80;12.20;;;;;;;4.54;88.18;101069.09;4931284;29;20212;-86
2021/12/15 10:57:08;;;;;;;23.38;13.65;;;;;;;4.53;88.40;101067.38;4927837;29;20217;-87
2021/12/15 10:59:40;;;;;;;20.73;12.98;;;;;;;4.52;88.41;101065.66;4929861;29;20311;-86
2021/12/15 11:02:17;;;;;;;16.88;10.88;;;;;;;4.54;88.70;101063.91;4932965;29;20217;-86
2021/12/15 11:04:49;;;;;;;13.10;10.45;;;;;;;4.58;88.47;101060.34;4933705;29;20224;-86
2021/12/15 11:07:29;;;;;;;15.82;10.23;;;;;;;4.59;88.49;101056.00;4933911;28;20331;-86
2021/12/15 11:10:00;;;;;;;19.08;10.80;;;;;;;4.60;88.33;101056.00;4935128;29;21028;-86
2021/12/15 11:12:34;;;;;;;17.15;9.60;;;;;;;4.58;88.38;101056.91;4943009;29;20204;-86
2021/12/15 11:15:11;;;;;;;17.42;10.52;;;;;;;4.56;88.45;101049.09;4949463;29;20197;-87
2021/12/15 11:17:47;;;;;;;16.13;11.57;;;;;;;4.58;88.40;101049.94;4940605;29;20201;-86
2021/12/15 11:20:17;;;;;;;11.90;10.60;;;;;;;4.59;88.24;101046.47;4951462;29;20212;-84
2021/12/15 11:23:00;;;;;;;13.73;11.10;;;;;;;4.62;88.30;101037.75;4931906;29;20210;-84
2021/12/15 11:25:41;;;;;;;11.60;9.30;;;;;;;4.63;88.26;101042.94;4937229;29;20450;-86
2021/12/15 11:28:08;;;;;;;18.95;10.50;;;;;;;4.65;88.22;101041.16;4935437;29;20254;-85
2021/12/15 11:30:49;;;;;;;24.85;13.30;;;;;;;4.66;88.40;101045.47;4930129;29;20809;-85
2021/12/15 11:33:19;;;;;;;22.63;12.75;;;;;;;4.65;88.43;101041.16;4928562;29;20211;-86
2021/12/15 11:36:02;;;;;;;27.42;14.82;;;;;;;4.66;88.42;101037.66;4925666;29;20776;-85
2021/12/15 11:38:34;;;;;;;36.85;17.85;;;;;;;4.66;88.51;101031.59;4930177;29;20205;-85
2021/12/15 11:41:00;;;;;;;31.15;17.00;;;;;;;4.66;88.67;101035.06;4926432;29;20665;-86
2021/12/15 11:44:07;;;;;;;30.83;17.40;;;;;;;4.70;88.67;101045.41;4918470;29;20666;-86
2021/12/15 11:46:45;;;;;;;26.50;14.77;;;;;;;4.70;88.68;101040.22;4922497;29;20263;-85
2021/12/15 11:49:18;;;;;;;39.22;19.23;;;;;;;4.72;88.83;101036.69;4933722;29;20213;-85
2021/12/15 11:51:51;;;;;;;38.47;23.90;;;;;;;4.74;88.93;101041.91;4929012;29;20213;-86
2021/12/15 11:54:19;;;;;;;27.17;15.68;;;;;;;4.76;88.88;101045.34;4929183;29;20216;-86
2021/12/15 11:56:47;;;;;;;36.15;19.52;;;;;;;4.78;88.74;101043.53;4926292;29;20201;-86
2021/12/15 11:59:12;;;;;;;38.50;22.08;;;;;;;4.78;88.90;101044.44;4928219;29;20284;-85
2021/12/15 12:01:43;;;;;;;46.23;28.90;;;;;;;4.88;89.10;101045.13;4933639;29;20902;-85
2021/12/15 12:04:10;;;;;;;28.00;19.35;;;;;;;4.86;88.96;101036.47;4932709;29;20616;-85
2021/12/15 12:06:36;;;;;;;39.58;20.77;;;;;;;4.84;89.23;101036.50;4934594;29;21359;-85
2021/12/15 12:09:02;;;;;;;32.80;19.93;;;;;;;4.85;89.17;101039.97;4937134;29;20249;-86
2021/12/15 12:11:29;;;;;;;32.10;19.17;;;;;;;4.86;89.05;101039.94;4926784;29;20408;-86
2021/12/15 12:13:59;;;;;;;37.67;17.60;;;;;;;4.86;89.01;101037.34;4930700;29;20227;-86
2021/12/15 12:16:25;;;;;;;25.92;15.93;;;;;;;4.83;89.22;101036.53;4931713;29;20223;-86
2021/12/15 12:18:52;;;;;;;34.90;17.77;;;;;;;4.83;89.39;101027.00;4928076;29;20211;-85
2021/12/15 12:21:20;;;;;;;30.40;19.05;;;;;;;4.82;89.04;101027.00;4932695;29;20952;-85
2021/12/15 12:24:17;;;;;;;29.30;16.27;;;;;;;4.82;89.47;101029.59;4921299;29;20758;-86
2021/12/15 12:26:44;;;;;;;29.73;18.20;;;;;;;4.81;89.16;101027.91;4935213;29;20220;-85
2021/12/15 12:29:11;;;;;;;31.58;17.00;;;;;;;4.84;89.11;101030.44;4931250;29;20233;-85
2021/12/15 12:31:36;;;;;;;34.60;20.25;;;;;;;4.93;89.05;101017.25;4932648;29;20487;-86
2021/12/15 12:34:02;;;;;;;37.87;21.43;;;;;;;4.95;89.22;101025.91;4935105;29;20471;-86